Wetterdaten: Woche 30.07.12 - 05.08.12 (KW31)
Datum Zeit Temp. Innen Temp. Aussen UV X Diff Temp. Feuchte Inne Feuchte Auss Sonnenschein Luftdruck Regen ab 0,1 Wind Sonnenschein T Regendauer Windben
30.07.2012 00:00 23,6 C 15,3 C 0,0 UV-I 0,0 C 46 % 71 % 0 % 1014,2 hPa 0,0 l/m 2,2 km/h (1 Bft) 0,00 h 0,00 h 6,5 km/h (2 Bft)
30.07.2012 01:00 23,0 C 15,0 C 0,0 UV-I 0,0 C 48 % 79 % 0 % 1014,3 hPa 0,0 l/m 6,9 km/h (2 Bft) 0,00 h 0,63 h 13,6 km/h (3 Bft)
30.07.2012 02:00 22,5 C 13,9 C 0,0 UV-I 0,0 C 52 % 86 % 0 % 1014,5 hPa 1,2 l/m 3,2 km/h (1 Bft) 0,00 h 0,43 h 7,7 km/h (2 Bft)
30.07.2012 03:00 22,3 C 13,2 C 0,0 UV-I 0,0 C 54 % 90 % 0 % 1014,5 hPa 2,1 l/m 2,3 km/h (1 Bft) 0,00 h 0,00 h 4,6 km/h (1 Bft)
30.07.2012 04:00 22,2 C 12,9 C 0,0 UV-I 0,0 C 55 % 92 % 0 % 1014,6 hPa 0,0 l/m 2,1 km/h (1 Bft) 0,00 h 0,00 h 4,6 km/h (1 Bft)
30.07.2012 05:00 22,0 C 12,6 C 0,0 UV-I 0,0 C 55 % 93 % 0 % 1014,8 hPa 0,0 l/m 0,9 km/h (0 Bft) 0,00 h 0,00 h 3,4 km/h (1 Bft)
30.07.2012 06:00 21,8 C 12,3 C 0,0 UV-I 0,0 C 56 % 94 % 0 % 1015,1 hPa 0,1 l/m 0,4 km/h (0 Bft) 0,00 h 0,00 h 2,4 km/h (1 Bft)
30.07.2012 07:00 21,7 C 12,6 C 0,0 UV-I 0,0 C 56 % 94 % 0 % 1015,5 hPa 0,0 l/m 2,3 km/h (1 Bft) 0,00 h 0,00 h 6,7 km/h (2 Bft)
30.07.2012 08:00 21,5 C 13,5 C 0,4 UV-I 1,9 C 56 % 94 % 39 % 1015,7 hPa 0,0 l/m 5,2 km/h (1 Bft) 0,37 h 0,00 h 11,9 km/h (2 Bft)
30.07.2012 09:00 21,2 C 15,1 C 1,6 UV-I 5,8 C 57 % 90 % 100 % 1015,9 hPa 0,0 l/m 7,3 km/h (2 Bft) 1,00 h 0,00 h 12,9 km/h (3 Bft)
30.07.2012 10:00 21,4 C 16,5 C 3,3 UV-I 6,3 C 56 % 83 % 100 % 1015,8 hPa 0,0 l/m 7,0 km/h (2 Bft) 1,00 h 0,00 h 12,6 km/h (3 Bft)
30.07.2012 11:00 21,6 C 17,8 C 3,2 UV-I 6,0 C 54 % 72 % 100 % 1015,7 hPa 0,0 l/m 6,8 km/h (2 Bft) 1,00 h 0,00 h 10,7 km/h (2 Bft)
30.07.2012 12:00 22,0 C 18,8 C 2,7 UV-I 5,6 C 50 % 63 % 99 % 1015,8 hPa 0,0 l/m 7,3 km/h (2 Bft) 1,00 h 0,00 h 13,1 km/h (3 Bft)
30.07.2012 13:00 22,3 C 18,9 C 2,1 UV-I 4,0 C 49 % 61 % 89 % 1015,9 hPa 0,0 l/m 7,4 km/h (2 Bft) 0,70 h 0,00 h 14,1 km/h (3 Bft)
30.07.2012 14:00 23,5 C 20,5 C 2,5 UV-I 5,2 C 45 % 55 % 100 % 1016,1 hPa 0,0 l/m 8,3 km/h (2 Bft) 1,00 h 0,00 h 17,5 km/h (3 Bft)
30.07.2012 15:00 24,3 C 18,1 C 0,9 UV-I 1,8 C 44 % 65 % 39 % 1016,7 hPa 0,9 l/m 7,7 km/h (2 Bft) 0,33 h 0,33 h 13,4 km/h (3 Bft)
30.07.2012 16:00 23,4 C 14,6 C 0,3 UV-I 0,0 C 49 % 83 % 0 % 1016,9 hPa 0,0 l/m 1,9 km/h (1 Bft) 0,00 h 0,17 h 4,3 km/h (1 Bft)
30.07.2012 17:00 22,9 C 15,2 C 0,4 UV-I 0,2 C 52 % 85 % 5 % 1017,1 hPa 0,0 l/m 2,1 km/h (1 Bft) 0,00 h 0,00 h 5,7 km/h (1 Bft)
30.07.2012 18:00 22,8 C 16,2 C 0,5 UV-I 1,3 C 51 % 77 % 38 % 1016,9 hPa 0,0 l/m 3,3 km/h (1 Bft) 0,00 h 0,00 h 7,6 km/h (2 Bft)
30.07.2012 19:00 22,8 C 17,0 C 0,3 UV-I 0,2 C 49 % 72 % 6 % 1016,9 hPa 0,0 l/m 2,1 km/h (1 Bft) 0,00 h 0,00 h 6,5 km/h (2 Bft)
30.07.2012 20:00 22,6 C 16,8 C 0,0 UV-I 0,0 C 52 % 73 % 0 % 1016,7 hPa 0,0 l/m 1,0 km/h (0 Bft) 0,00 h 0,00 h 2,2 km/h (1 Bft)
30.07.2012 21:00 22,4 C 15,7 C 0,0 UV-I 0,0 C 54 % 77 % 0 % 1016,7 hPa 0,0 l/m 0,0 km/h (0 Bft) 0,00 h 0,00 h 0,0 km/h (0 Bft)
30.07.2012 22:00 22,1 C 15,0 C 0,0 UV-I 0,0 C 54 % 80 % 0 % 1017,0 hPa 0,0 l/m 0,2 km/h (0 Bft) 0,00 h 0,00 h 0,4 km/h (0 Bft)
30.07.2012 23:00 22,0 C 14,9 C 0,0 UV-I 0,0 C 53 % 79 % 0 % 1016,9 hPa 0,0 l/m 0,3 km/h (0 Bft) 0,00 h 0,00 h 0,7 km/h (0 Bft)
31.07.2012 00:00 21,7 C 14,5 C 0,0 UV-I 0,0 C 53 % 80 % 0 % 1017,0 hPa 0,0 l/m 0,1 km/h (0 Bft) 0,00 h 0,00 h 0,0 km/h (0 Bft)
31.07.2012 01:00 21,6 C 14,5 C 0,0 UV-I 0,0 C 53 % 81 % 0 % 1017,0 hPa 0,0 l/m 0,6 km/h (0 Bft) 0,00 h 0,00 h 1,9 km/h (1 Bft)
31.07.2012 02:00 21,6 C 14,6 C 0,0 UV-I 0,0 C 53 % 80 % 0 % 1016,9 hPa 0,0 l/m 1,0 km/h (0 Bft) 0,00 h 0,00 h 3,1 km/h (1 Bft)
31.07.2012 03:00 21,5 C 14,3 C 0,0 UV-I 0,0 C 53 % 81 % 0 % 1017,1 hPa 0,0 l/m 0,8 km/h (0 Bft) 0,00 h 0,00 h 2,1 km/h (1 Bft)
31.07.2012 04:00 21,2 C 13,6 C 0,0 UV-I 0,0 C 53 % 83 % 0 % 1017,4 hPa 0,0 l/m 0,1 km/h (0 Bft) 0,00 h 0,00 h 0,6 km/h (0 Bft)
31.07.2012 05:00 21,1 C 13,2 C 0,0 UV-I 0,0 C 54 % 84 % 0 % 1017,4 hPa 0,0 l/m 0,1 km/h (0 Bft) 0,00 h 0,00 h 0,7 km/h (0 Bft)
31.07.2012 06:00 21,0 C 13,2 C 0,0 UV-I 0,0 C 54 % 84 % 0 % 1017,4 hPa 0,0 l/m 0,2 km/h (0 Bft) 0,00 h 0,00 h 1,3 km/h (1 Bft)
31.07.2012 07:00 21,0 C 13,7 C 0,0 UV-I 0,1 C 54 % 85 % 3 % 1017,5 hPa 0,0 l/m 0,7 km/h (0 Bft) 0,00 h 0,00 h 1,3 km/h (1 Bft)
31.07.2012 08:00 21,2 C 14,7 C 0,3 UV-I 1,9 C 54 % 83 % 54 % 1017,6 hPa 0,0 l/m 1,3 km/h (1 Bft) 0,23 h 0,00 h 5,2 km/h (1 Bft)
31.07.2012 09:00 21,5 C 16,0 C 0,3 UV-I 2,1 C 53 % 77 % 60 % 1017,7 hPa 0,0 l/m 1,9 km/h (1 Bft) 0,00 h 0,00 h 4,5 km/h (1 Bft)
31.07.2012 10:00 21,9 C 17,1 C 0,9 UV-I 3,2 C 52 % 74 % 89 % 1017,8 hPa 0,0 l/m 1,3 km/h (1 Bft) 0,70 h 0,00 h 2,6 km/h (1 Bft)
31.07.2012 11:00 22,5 C 18,9 C 2,7 UV-I 6,3 C 51 % 67 % 100 % 1017,9 hPa 0,0 l/m 2,6 km/h (1 Bft) 1,00 h 0,00 h 5,7 km/h (1 Bft)
31.07.2012 12:00 22,8 C 20,1 C 2,7 UV-I 6,1 C 49 % 63 % 100 % 1017,8 hPa 0,0 l/m 4,6 km/h (1 Bft) 1,00 h 0,00 h 10,7 km/h (2 Bft)
31.07.2012 13:00 23,0 C 19,8 C 1,7 UV-I 3,6 C 49 % 61 % 95 % 1017,6 hPa 0,0 l/m 3,9 km/h (1 Bft) 0,90 h 0,00 h 7,8 km/h (2 Bft)
31.07.2012 14:00 23,0 C 19,4 C 1,0 UV-I 2,1 C 47 % 61 % 59 % 1017,7 hPa 0,0 l/m 3,2 km/h (1 Bft) 0,27 h 0,00 h 7,6 km/h (2 Bft)
31.07.2012 15:00 22,9 C 19,2 C 0,8 UV-I 1,7 C 48 % 63 % 48 % 1017,8 hPa 0,0 l/m 2,9 km/h (1 Bft) 0,00 h 0,00 h 7,6 km/h (2 Bft)
31.07.2012 16:00 23,2 C 19,5 C 1,9 UV-I 3,6 C 49 % 65 % 77 % 1017,2 hPa 0,0 l/m 2,3 km/h (1 Bft) 0,50 h 0,00 h 5,3 km/h (1 Bft)
31.07.2012 17:00 24,2 C 20,7 C 1,3 UV-I 3,4 C 47 % 62 % 82 % 1016,5 hPa 0,0 l/m 2,0 km/h (1 Bft) 0,67 h 0,00 h 4,9 km/h (1 Bft)
31.07.2012 18:00 23,8 C 20,3 C 0,2 UV-I 0,7 C 48 % 65 % 19 % 1016,5 hPa 0,0 l/m 1,7 km/h (1 Bft) 0,00 h 0,00 h 4,3 km/h (1 Bft)
31.07.2012 19:00 23,5 C 20,1 C 0,0 UV-I 0,2 C 49 % 66 % 5 % 1016,7 hPa 0,0 l/m 0,3 km/h (0 Bft) 0,00 h 0,00 h 1,0 km/h (0 Bft)
31.07.2012 20:00 23,2 C 19,8 C 0,0 UV-I 0,0 C 51 % 68 % 0 % 1016,8 hPa 0,0 l/m 0,7 km/h (0 Bft) 0,00 h 0,00 h 2,1 km/h (1 Bft)
31.07.2012 21:00 23,1 C 19,0 C 0,0 UV-I 0,0 C 52 % 70 % 0 % 1016,8 hPa 0,0 l/m 1,1 km/h (0 Bft) 0,00 h 0,00 h 2,6 km/h (1 Bft)
31.07.2012 22:00 23,0 C 18,3 C 0,0 UV-I 0,0 C 52 % 72 % 0 % 1017,0 hPa 0,0 l/m 2,0 km/h (1 Bft) 0,00 h 0,00 h 5,6 km/h (1 Bft)
31.07.2012 23:00 22,8 C 17,6 C 0,0 UV-I 0,0 C 53 % 74 % 0 % 1016,9 hPa 0,0 l/m 1,3 km/h (1 Bft) 0,00 h 0,00 h 3,1 km/h (1 Bft)
01.08.2012 00:00 22,7 C 17,2 C 0,0 UV-I 0,0 C 54 % 77 % 0 % 1017,0 hPa 0,0 l/m 0,2 km/h (0 Bft) 0,00 h 0,00 h 1,3 km/h (1 Bft)
01.08.2012 01:00 22,6 C 16,9 C 0,0 UV-I 0,0 C 54 % 78 % 0 % 1016,7 hPa 0,0 l/m 0,7 km/h (0 Bft) 0,00 h 0,00 h 2,6 km/h (1 Bft)
01.08.2012 02:00 22,4 C 16,0 C 0,0 UV-I 0,0 C 55 % 80 % 0 % 1016,4 hPa 0,0 l/m 2,0 km/h (1 Bft) 0,00 h 0,00 h 4,4 km/h (1 Bft)
01.08.2012 03:00 22,2 C 15,2 C 0,0 UV-I 0,0 C 55 % 83 % 0 % 1016,1 hPa 0,0 l/m 0,9 km/h (0 Bft) 0,00 h 0,00 h 2,7 km/h (1 Bft)
01.08.2012 04:00 21,9 C 14,3 C 0,0 UV-I 0,0 C 57 % 86 % 0 % 1015,9 hPa 0,0 l/m 0,1 km/h (0 Bft) 0,00 h 0,00 h 0,6 km/h (0 Bft)
01.08.2012 05:00 21,6 C 13,5 C 0,0 UV-I 0,0 C 57 % 88 % 0 % 1016,1 hPa 0,0 l/m 0,7 km/h (0 Bft) 0,00 h 0,00 h 2,1 km/h (1 Bft)
01.08.2012 06:00 21,4 C 13,0 C 0,0 UV-I 0,0 C 57 % 90 % 0 % 1016,0 hPa 0,0 l/m 0,1 km/h (0 Bft) 0,00 h 0,00 h 0,6 km/h (0 Bft)
01.08.2012 07:00 21,4 C 13,4 C 0,0 UV-I 0,1 C 58 % 92 % 2 % 1015,6 hPa 0,0 l/m 1,3 km/h (1 Bft) 0,00 h 0,00 h 4,1 km/h (1 Bft)
01.08.2012 08:00 21,6 C 15,6 C 0,1 UV-I 2,6 C 58 % 92 % 46 % 1015,2 hPa 0,0 l/m 3,5 km/h (1 Bft) 0,37 h 0,00 h 7,2 km/h (2 Bft)
01.08.2012 09:00 21,9 C 19,2 C 2,2 UV-I 7,8 C 58 % 84 % 100 % 1014,8 hPa 0,0 l/m 4,7 km/h (1 Bft) 1,00 h 0,00 h 8,9 km/h (2 Bft)
01.08.2012 10:00 22,4 C 22,1 C 5,0 UV-I 7,1 C 58 % 73 % 100 % 1014,5 hPa 0,0 l/m 5,7 km/h (1 Bft) 1,00 h 0,00 h 10,6 km/h (2 Bft)
01.08.2012 11:00 22,8 C 24,4 C 4,8 UV-I 6,2 C 57 % 67 % 100 % 1013,9 hPa 0,0 l/m 6,9 km/h (2 Bft) 1,00 h 0,00 h 12,7 km/h (3 Bft)
01.08.2012 12:00 23,2 C 26,2 C 3,2 UV-I 5,6 C 58 % 61 % 100 % 1013,4 hPa 0,0 l/m 7,1 km/h (2 Bft) 1,00 h 0,00 h 15,2 km/h (3 Bft)
01.08.2012 13:00 23,8 C 27,7 C 2,4 UV-I 5,0 C 57 % 55 % 100 % 1012,4 hPa 0,0 l/m 8,2 km/h (2 Bft) 1,00 h 0,00 h 14,2 km/h (3 Bft)
01.08.2012 14:00 25,1 C 28,7 C 2,4 UV-I 4,2 C 55 % 50 % 100 % 1012,0 hPa 0,0 l/m 9,7 km/h (2 Bft) 1,00 h 0,00 h 15,5 km/h (3 Bft)
01.08.2012 15:00 26,8 C 29,6 C 2,9 UV-I 4,0 C 51 % 48 % 100 % 1010,7 hPa 0,0 l/m 10,0 km/h (2 Bft) 1,00 h 0,00 h 18,4 km/h (3 Bft)
01.08.2012 16:00 28,1 C 30,1 C 4,4 UV-I 3,9 C 47 % 47 % 100 % 1009,0 hPa 0,0 l/m 10,5 km/h (2 Bft) 1,00 h 0,00 h 18,8 km/h (3 Bft)
01.08.2012 17:00 28,5 C 30,0 C 3,5 UV-I 3,0 C 46 % 46 % 84 % 1008,3 hPa 0,0 l/m 10,5 km/h (2 Bft) 0,63 h 0,00 h 16,5 km/h (3 Bft)
01.08.2012 18:00 27,7 C 29,4 C 1,1 UV-I 2,0 C 47 % 49 % 52 % 1007,8 hPa 0,0 l/m 7,2 km/h (2 Bft) 0,40 h 0,00 h 10,9 km/h (2 Bft)
01.08.2012 19:00 26,8 C 28,5 C 0,4 UV-I 0,2 C 49 % 53 % 5 % 1007,8 hPa 0,0 l/m 3,5 km/h (1 Bft) 0,00 h 0,00 h 6,7 km/h (2 Bft)
01.08.2012 20:00 26,2 C 27,3 C 0,0 UV-I 0,0 C 52 % 57 % 0 % 1007,8 hPa 0,0 l/m 0,1 km/h (0 Bft) 0,00 h 0,00 h 0,7 km/h (0 Bft)
01.08.2012 21:00 25,8 C 26,1 C 0,0 UV-I 0,0 C 54 % 61 % 0 % 1008,0 hPa 0,0 l/m 0,1 km/h (0 Bft) 0,00 h 0,00 h 0,3 km/h (0 Bft)
01.08.2012 22:00 25,6 C 24,9 C 0,0 UV-I 0,0 C 55 % 64 % 0 % 1007,7 hPa 0,0 l/m 0,9 km/h (0 Bft) 0,00 h 0,00 h 2,1 km/h (1 Bft)
01.08.2012 23:00 25,4 C 23,7 C 0,0 UV-I 0,0 C 57 % 68 % 0 % 1007,4 hPa 0,0 l/m 1,8 km/h (1 Bft) 0,00 h 0,00 h 3,8 km/h (1 Bft)
02.08.2012 00:00 25,2 C 22,7 C 0,0 UV-I 0,0 C 57 % 70 % 0 % 1007,1 hPa 0,0 l/m 2,7 km/h (1 Bft) 0,00 h 0,00 h 6,2 km/h (2 Bft)
02.08.2012 01:00 25,1 C 22,0 C 0,0 UV-I 0,0 C 58 % 73 % 0 % 1007,2 hPa 0,0 l/m 3,1 km/h (1 Bft) 0,00 h 0,00 h 5,9 km/h (2 Bft)
02.08.2012 02:00 25,0 C 21,6 C 0,0 UV-I 0,0 C 58 % 75 % 0 % 1007,4 hPa 0,0 l/m 0,4 km/h (0 Bft) 0,00 h 0,00 h 0,7 km/h (0 Bft)
02.08.2012 03:00 24,9 C 21,3 C 0,0 UV-I 0,0 C 59 % 77 % 0 % 1007,4 hPa 0,0 l/m 0,6 km/h (0 Bft) 0,00 h 0,00 h 2,0 km/h (1 Bft)
02.08.2012 04:00 24,8 C 21,6 C 0,0 UV-I 0,0 C 60 % 80 % 0 % 1007,8 hPa 0,0 l/m 5,3 km/h (1 Bft) 0,00 h 0,00 h 11,4 km/h (2 Bft)
02.08.2012 05:00 24,5 C 20,1 C 0,0 UV-I 0,0 C 62 % 87 % 0 % 1008,7 hPa 0,0 l/m 4,4 km/h (1 Bft) 0,00 h 0,00 h 8,6 km/h (2 Bft)
02.08.2012 06:00 24,4 C 19,2 C 0,0 UV-I 0,0 C 63 % 89 % 0 % 1009,5 hPa 0,0 l/m 2,7 km/h (1 Bft) 0,00 h 0,00 h 6,8 km/h (2 Bft)
02.08.2012 07:00 24,3 C 19,4 C 0,1 UV-I 0,1 C 63 % 90 % 4 % 1010,3 hPa 0,0 l/m 3,4 km/h (1 Bft) 0,00 h 0,00 h 9,3 km/h (2 Bft)
02.08.2012 08:00 24,3 C 20,4 C 0,4 UV-I 1,1 C 64 % 88 % 31 % 1010,7 hPa 0,0 l/m 3,5 km/h (1 Bft) 0,00 h 0,00 h 6,6 km/h (2 Bft)
02.08.2012 09:00 24,4 C 21,5 C 1,6 UV-I 4,5 C 64 % 83 % 96 % 1010,9 hPa 0,0 l/m 4,6 km/h (1 Bft) 1,00 h 0,00 h 9,7 km/h (2 Bft)
02.08.2012 10:00 24,5 C 22,6 C 3,2 UV-I 5,6 C 62 % 75 % 99 % 1011,1 hPa 0,0 l/m 7,3 km/h (2 Bft) 1,00 h 0,00 h 14,5 km/h (3 Bft)
02.08.2012 11:00 24,6 C 22,3 C 1,9 UV-I 2,9 C 60 % 72 % 78 % 1011,7 hPa 0,0 l/m 8,1 km/h (2 Bft) 0,37 h 0,00 h 14,0 km/h (3 Bft)
02.08.2012 12:00 24,8 C 22,9 C 2,4 UV-I 4,4 C 58 % 68 % 99 % 1012,4 hPa 0,0 l/m 8,3 km/h (2 Bft) 1,00 h 0,00 h 14,7 km/h (3 Bft)
02.08.2012 13:00 25,1 C 23,2 C 2,3 UV-I 4,2 C 55 % 63 % 96 % 1012,6 hPa 0,0 l/m 8,3 km/h (2 Bft) 0,90 h 0,00 h 13,9 km/h (3 Bft)
02.08.2012 14:00 25,4 C 22,9 C 1,3 UV-I 2,6 C 53 % 62 % 74 % 1012,8 hPa 0,0 l/m 5,5 km/h (1 Bft) 0,27 h 0,00 h 10,6 km/h (2 Bft)
02.08.2012 15:00 25,4 C 22,9 C 1,3 UV-I 2,5 C 53 % 62 % 70 % 1013,1 hPa 0,0 l/m 3,3 km/h (1 Bft) 0,30 h 0,00 h 7,5 km/h (2 Bft)
02.08.2012 16:00 25,4 C 22,7 C 0,5 UV-I 1,3 C 52 % 63 % 36 % 1013,3 hPa 0,0 l/m 2,0 km/h (1 Bft) 0,00 h 0,00 h 4,0 km/h (1 Bft)
02.08.2012 17:00 25,2 C 22,3 C 0,2 UV-I 0,7 C 52 % 65 % 20 % 1013,6 hPa 0,0 l/m 2,4 km/h (1 Bft) 0,00 h 0,00 h 6,8 km/h (2 Bft)
02.08.2012 18:00 25,1 C 22,1 C 0,4 UV-I 1,0 C 53 % 66 % 29 % 1013,5 hPa 0,0 l/m 1,2 km/h (1 Bft) 0,00 h 0,00 h 4,2 km/h (1 Bft)
02.08.2012 19:00 25,1 C 22,2 C 0,5 UV-I 0,3 C 52 % 64 % 10 % 1013,5 hPa 0,0 l/m 2,8 km/h (1 Bft) 0,00 h 0,00 h 6,2 km/h (2 Bft)
02.08.2012 20:00 24,9 C 21,5 C 0,0 UV-I 0,0 C 52 % 66 % 0 % 1013,7 hPa 0,0 l/m 0,7 km/h (0 Bft) 0,00 h 0,00 h 1,0 km/h (0 Bft)
02.08.2012 21:00 24,7 C 19,9 C 0,0 UV-I 0,0 C 54 % 71 % 0 % 1014,0 hPa 0,0 l/m 0,0 km/h (0 Bft) 0,00 h 0,00 h 0,0 km/h (0 Bft)
02.08.2012 22:00 24,3 C 17,8 C 0,0 UV-I 0,0 C 56 % 78 % 0 % 1014,5 hPa 0,0 l/m 0,0 km/h (0 Bft) 0,00 h 0,00 h 0,3 km/h (0 Bft)
02.08.2012 23:00 24,0 C 16,5 C 0,0 UV-I 0,0 C 57 % 83 % 0 % 1014,7 hPa 0,0 l/m 0,0 km/h (0 Bft) 0,00 h 0,00 h 0,0 km/h (0 Bft)
03.08.2012 00:00 23,8 C 15,4 C 0,0 UV-I 0,0 C 57 % 87 % 0 % 1014,9 hPa 0,0 l/m 0,0 km/h (0 Bft) 0,00 h 0,00 h 0,0 km/h (0 Bft)
03.08.2012 01:00 23,5 C 14,7 C 0,0 UV-I 0,0 C 57 % 89 % 0 % 1015,0 hPa 0,0 l/m 0,0 km/h (0 Bft) 0,00 h 0,00 h 0,0 km/h (0 Bft)
03.08.2012 02:00 23,3 C 14,4 C 0,0 UV-I 0,0 C 57 % 91 % 0 % 1015,0 hPa 0,0 l/m 0,0 km/h (0 Bft) 0,00 h 0,00 h 0,0 km/h (0 Bft)
03.08.2012 03:00 23,1 C 14,1 C 0,0 UV-I 0,0 C 57 % 92 % 0 % 1014,9 hPa 0,0 l/m 0,0 km/h (0 Bft) 0,00 h 0,00 h 0,3 km/h (0 Bft)
03.08.2012 04:00 22,8 C 14,0 C 0,0 UV-I 0,0 C 57 % 93 % 0 % 1014,9 hPa 0,0 l/m 1,8 km/h (1 Bft) 0,00 h 0,00 h 4,4 km/h (1 Bft)
03.08.2012 05:00 22,7 C 13,9 C 0,0 UV-I 0,0 C 57 % 93 % 0 % 1014,9 hPa 0,0 l/m 3,8 km/h (1 Bft) 0,00 h 0,00 h 6,6 km/h (2 Bft)
03.08.2012 06:00 22,5 C 14,0 C 0,0 UV-I 0,0 C 58 % 94 % 0 % 1015,0 hPa 0,0 l/m 4,0 km/h (1 Bft) 0,00 h 0,00 h 7,4 km/h (2 Bft)
03.08.2012 07:00 22,6 C 14,9 C 0,0 UV-I 0,2 C 58 % 94 % 5 % 1015,1 hPa 0,0 l/m 2,3 km/h (1 Bft) 0,00 h 0,00 h 5,2 km/h (1 Bft)
03.08.2012 08:00 22,8 C 17,0 C 0,4 UV-I 3,0 C 59 % 92 % 54 % 1015,2 hPa 0,0 l/m 1,5 km/h (1 Bft) 0,37 h 0,00 h 3,4 km/h (1 Bft)
03.08.2012 09:00 23,2 C 19,9 C 1,7 UV-I 6,7 C 57 % 80 % 100 % 1015,3 hPa 0,0 l/m 3,4 km/h (1 Bft) 1,00 h 0,00 h 7,8 km/h (2 Bft)
03.08.2012 10:00 23,2 C 21,1 C 3,6 UV-I 6,5 C 57 % 73 % 100 % 1015,4 hPa 0,0 l/m 3,7 km/h (1 Bft) 1,00 h 0,00 h 7,6 km/h (2 Bft)
03.08.2012 11:00 23,3 C 22,8 C 4,7 UV-I 7,4 C 57 % 65 % 100 % 1015,3 hPa 0,0 l/m 5,8 km/h (2 Bft) 1,00 h 0,00 h 10,3 km/h (2 Bft)
03.08.2012 12:00 23,8 C 23,5 C 2,7 UV-I 5,6 C 56 % 61 % 100 % 1015,3 hPa 0,0 l/m 6,6 km/h (2 Bft) 1,00 h 0,00 h 16,4 km/h (3 Bft)
03.08.2012 13:00 24,3 C 23,8 C 2,5 UV-I 5,0 C 54 % 59 % 100 % 1015,0 hPa 0,0 l/m 5,7 km/h (1 Bft) 1,00 h 0,00 h 11,4 km/h (2 Bft)
03.08.2012 14:00 25,3 C 24,7 C 2,7 UV-I 5,7 C 52 % 57 % 100 % 1015,1 hPa 0,0 l/m 5,7 km/h (1 Bft) 1,00 h 0,00 h 13,1 km/h (3 Bft)
03.08.2012 15:00 26,3 C 24,7 C 1,9 UV-I 3,9 C 49 % 56 % 91 % 1014,8 hPa 0,0 l/m 4,7 km/h (1 Bft) 0,77 h 0,00 h 9,4 km/h (2 Bft)
03.08.2012 16:00 26,6 C 24,8 C 2,7 UV-I 4,3 C 48 % 55 % 94 % 1014,0 hPa 0,0 l/m 4,1 km/h (1 Bft) 0,87 h 0,00 h 8,2 km/h (2 Bft)
03.08.2012 17:00 27,4 C 25,2 C 3,8 UV-I 5,8 C 46 % 54 % 100 % 1013,6 hPa 0,0 l/m 4,5 km/h (1 Bft) 1,00 h 0,00 h 8,8 km/h (2 Bft)
03.08.2012 18:00 26,9 C 24,0 C 0,7 UV-I 1,7 C 46 % 56 % 42 % 1014,0 hPa 0,0 l/m 1,1 km/h (1 Bft) 0,23 h 0,00 h 2,0 km/h (1 Bft)
03.08.2012 19:00 26,1 C 23,3 C 0,2 UV-I 0,3 C 47 % 57 % 9 % 1014,0 hPa 0,0 l/m 2,2 km/h (1 Bft) 0,00 h 0,00 h 6,0 km/h (2 Bft)
03.08.2012 20:00 25,5 C 22,5 C 0,0 UV-I 0,0 C 48 % 59 % 0 % 1014,1 hPa 0,0 l/m 0,5 km/h (0 Bft) 0,00 h 0,00 h 1,7 km/h (1 Bft)
03.08.2012 21:00 25,1 C 20,8 C 0,0 UV-I 0,0 C 49 % 64 % 0 % 1014,5 hPa 0,0 l/m 0,5 km/h (0 Bft) 0,00 h 0,00 h 0,9 km/h (0 Bft)
03.08.2012 22:00 24,7 C 18,9 C 0,0 UV-I 0,0 C 51 % 72 % 0 % 1014,7 hPa 0,0 l/m 0,1 km/h (0 Bft) 0,00 h 0,00 h 0,0 km/h (0 Bft)
03.08.2012 23:00 24,4 C 17,3 C 0,0 UV-I 0,0 C 53 % 78 % 0 % 1015,0 hPa 0,0 l/m 0,0 km/h (0 Bft) 0,00 h 0,00 h 0,0 km/h (0 Bft)
04.08.2012 00:00 24,1 C 16,7 C 0,0 UV-I 0,0 C 54 % 82 % 0 % 1015,0 hPa 0,0 l/m 0,2 km/h (0 Bft) 0,00 h 0,00 h 0,8 km/h (0 Bft)
04.08.2012 01:00 24,0 C 16,9 C 0,0 UV-I 0,0 C 54 % 82 % 0 % 1014,6 hPa 0,0 l/m 0,1 km/h (0 Bft) 0,00 h 0,07 h 0,6 km/h (0 Bft)
04.08.2012 02:00 23,9 C 17,4 C 0,0 UV-I 0,0 C 53 % 80 % 0 % 1014,3 hPa 0,0 l/m 0,1 km/h (0 Bft) 0,00 h 0,07 h 0,3 km/h (0 Bft)
04.08.2012 03:00 23,8 C 17,2 C 0,0 UV-I 0,0 C 54 % 81 % 0 % 1014,1 hPa 0,0 l/m 0,0 km/h (0 Bft) 0,00 h 0,00 h 0,0 km/h (0 Bft)
04.08.2012 04:00 23,7 C 16,9 C 0,0 UV-I 0,0 C 55 % 83 % 0 % 1014,1 hPa 0,0 l/m 0,0 km/h (0 Bft) 0,00 h 0,00 h 0,3 km/h (0 Bft)
04.08.2012 05:00 23,6 C 16,9 C 0,0 UV-I 0,0 C 55 % 83 % 0 % 1014,1 hPa 0,0 l/m 0,1 km/h (0 Bft) 0,00 h 0,00 h 0,8 km/h (0 Bft)
04.08.2012 06:00 23,4 C 16,3 C 0,0 UV-I 0,0 C 55 % 84 % 0 % 1014,1 hPa 0,0 l/m 0,1 km/h (0 Bft) 0,00 h 0,00 h 0,3 km/h (0 Bft)
04.08.2012 07:00 23,2 C 16,5 C 0,1 UV-I 0,1 C 56 % 86 % 3 % 1014,3 hPa 0,0 l/m 0,9 km/h (0 Bft) 0,00 h 0,00 h 2,8 km/h (1 Bft)
04.08.2012 08:00 23,3 C 17,4 C 0,3 UV-I 0,7 C 57 % 85 % 20 % 1014,3 hPa 0,0 l/m 1,5 km/h (1 Bft) 0,00 h 0,00 h 4,1 km/h (1 Bft)
04.08.2012 09:00 23,6 C 18,4 C 0,5 UV-I 2,0 C 56 % 82 % 57 % 1013,9 hPa 0,0 l/m 0,3 km/h (0 Bft) 0,17 h 0,00 h 2,2 km/h (1 Bft)
04.08.2012 10:00 23,8 C 19,8 C 2,4 UV-I 5,3 C 55 % 76 % 96 % 1013,9 hPa 0,0 l/m 1,8 km/h (1 Bft) 0,90 h 0,00 h 5,2 km/h (1 Bft)
04.08.2012 11:00 23,9 C 22,0 C 4,6 UV-I 7,9 C 54 % 68 % 100 % 1013,9 hPa 0,0 l/m 4,7 km/h (1 Bft) 1,00 h 0,00 h 10,0 km/h (2 Bft)
04.08.2012 12:00 24,2 C 23,1 C 2,7 UV-I 5,4 C 54 % 62 % 100 % 1013,6 hPa 0,0 l/m 3,9 km/h (1 Bft) 1,00 h 0,00 h 8,3 km/h (2 Bft)
04.08.2012 13:00 24,8 C 24,4 C 2,6 UV-I 5,9 C 52 % 57 % 100 % 1013,6 hPa 0,0 l/m 5,7 km/h (1 Bft) 1,00 h 0,00 h 10,7 km/h (2 Bft)
04.08.2012 14:00 25,7 C 25,3 C 2,7 UV-I 5,6 C 49 % 54 % 100 % 1013,1 hPa 0,0 l/m 5,2 km/h (1 Bft) 1,00 h 0,00 h 10,6 km/h (2 Bft)
04.08.2012 15:00 26,6 C 25,8 C 2,5 UV-I 4,6 C 48 % 53 % 100 % 1012,1 hPa 0,0 l/m 4,4 km/h (1 Bft) 1,00 h 0,00 h 9,1 km/h (2 Bft)
04.08.2012 16:00 27,6 C 26,7 C 3,7 UV-I 5,6 C 45 % 50 % 100 % 1010,7 hPa 0,0 l/m 4,4 km/h (1 Bft) 1,00 h 0,00 h 9,7 km/h (2 Bft)
04.08.2012 17:00 28,4 C 26,8 C 3,7 UV-I 5,1 C 42 % 47 % 100 % 1010,4 hPa 0,0 l/m 4,8 km/h (1 Bft) 1,00 h 0,00 h 10,5 km/h (2 Bft)
04.08.2012 18:00 27,5 C 23,8 C 0,3 UV-I 0,7 C 43 % 56 % 21 % 1011,1 hPa 0,0 l/m 4,1 km/h (1 Bft) 0,07 h 0,33 h 7,8 km/h (2 Bft)
04.08.2012 19:00 26,5 C 21,9 C 0,2 UV-I 0,0 C 48 % 67 % 0 % 1010,9 hPa 0,0 l/m 0,5 km/h (0 Bft) 0,00 h 0,00 h 1,8 km/h (1 Bft)
04.08.2012 20:00 25,9 C 21,2 C 0,0 UV-I 0,0 C 52 % 73 % 0 % 1011,0 hPa 0,0 l/m 0,7 km/h (0 Bft) 0,00 h 0,00 h 1,7 km/h (1 Bft)
04.08.2012 21:00 25,4 C 20,3 C 0,0 UV-I 0,0 C 54 % 75 % 0 % 1011,1 hPa 0,0 l/m 0,1 km/h (0 Bft) 0,00 h 0,00 h 0,9 km/h (0 Bft)
04.08.2012 22:00 25,1 C 19,2 C 0,0 UV-I 0,0 C 55 % 79 % 0 % 1011,1 hPa 0,0 l/m 0,1 km/h (0 Bft) 0,00 h 0,00 h 0,0 km/h (0 Bft)
04.08.2012 23:00 24,8 C 17,7 C 0,0 UV-I 0,0 C 57 % 85 % 0 % 1011,4 hPa 0,0 l/m 0,1 km/h (0 Bft) 0,00 h 0,00 h 0,2 km/h (0 Bft)
05.08.2012 00:00 24,5 C 16,7 C 0,0 UV-I 0,0 C 58 % 88 % 0 % 1011,1 hPa 0,0 l/m 0,0 km/h (0 Bft) 0,00 h 0,00 h 0,0 km/h (0 Bft)
05.08.2012 01:00 24,2 C 15,9 C 0,0 UV-I 0,0 C 58 % 90 % 0 % 1010,9 hPa 0,0 l/m 0,0 km/h (0 Bft) 0,00 h 0,03 h 0,0 km/h (0 Bft)
05.08.2012 02:00 24,0 C 15,5 C 0,0 UV-I 0,0 C 58 % 92 % 0 % 1010,6 hPa 0,0 l/m 0,0 km/h (0 Bft) 0,00 h 0,00 h 0,0 km/h (0 Bft)
05.08.2012 03:00 23,8 C 15,4 C 0,0 UV-I 0,0 C 58 % 93 % 0 % 1010,2 hPa 0,0 l/m 0,0 km/h (0 Bft) 0,00 h 0,00 h 0,0 km/h (0 Bft)
05.08.2012 04:00 23,7 C 15,5 C 0,0 UV-I 0,0 C 59 % 94 % 0 % 1009,9 hPa 0,0 l/m 0,0 km/h (0 Bft) 0,00 h 0,03 h 0,3 km/h (0 Bft)
05.08.2012 05:00 23,6 C 15,6 C 0,0 UV-I 0,0 C 60 % 94 % 0 % 1009,6 hPa 0,0 l/m 0,0 km/h (0 Bft) 0,00 h 0,00 h 0,0 km/h (0 Bft)
05.08.2012 06:00 23,6 C 15,2 C 0,0 UV-I 0,0 C 59 % 94 % 0 % 1009,3 hPa 0,0 l/m 0,0 km/h (0 Bft) 0,00 h 0,00 h 0,0 km/h (0 Bft)
05.08.2012 07:00 23,4 C 15,7 C 0,0 UV-I 0,0 C 60 % 95 % 0 % 1009,3 hPa 0,0 l/m 0,2 km/h (0 Bft) 0,00 h 0,00 h 1,1 km/h (1 Bft)
05.08.2012 08:00 23,6 C 16,6 C 0,1 UV-I 0,8 C 61 % 96 % 23 % 1009,2 hPa 0,0 l/m 0,7 km/h (0 Bft) 0,00 h 0,00 h 2,0 km/h (1 Bft)
05.08.2012 09:00 23,9 C 18,3 C 1,0 UV-I 2,6 C 62 % 95 % 73 % 1009,3 hPa 0,0 l/m 1,4 km/h (1 Bft) 0,43 h 0,00 h 3,7 km/h (1 Bft)
05.08.2012 10:00 24,2 C 20,4 C 2,1 UV-I 4,1 C 61 % 89 % 96 % 1009,4 hPa 0,0 l/m 3,5 km/h (1 Bft) 0,97 h 0,00 h 7,8 km/h (2 Bft)
05.08.2012 11:00 24,4 C 22,9 C 3,4 UV-I 5,7 C 60 % 75 % 99 % 1008,9 hPa 0,0 l/m 5,1 km/h (1 Bft) 1,00 h 0,00 h 10,1 km/h (2 Bft)
05.08.2012 12:00 24,7 C 24,4 C 3,1 UV-I 5,3 C 59 % 66 % 100 % 1009,1 hPa 0,0 l/m 6,9 km/h (2 Bft) 1,00 h 0,00 h 12,4 km/h (3 Bft)
05.08.2012 13:00 25,2 C 25,2 C 1,8 UV-I 3,6 C 57 % 62 % 84 % 1008,9 hPa 0,0 l/m 6,7 km/h (2 Bft) 0,60 h 0,00 h 11,3 km/h (2 Bft)
05.08.2012 14:00 25,4 C 23,9 C 0,9 UV-I 1,5 C 56 % 66 % 43 % 1008,5 hPa 0,0 l/m 5,0 km/h (1 Bft) 0,00 h 0,00 h 7,8 km/h (2 Bft)
05.08.2012 15:00 25,6 C 23,7 C 1,1 UV-I 1,6 C 56 % 66 % 45 % 1008,5 hPa 0,0 l/m 5,3 km/h (1 Bft) 0,00 h 0,03 h 11,7 km/h (2 Bft)
05.08.2012 16:00 25,6 C 22,4 C 1,4 UV-I 2,2 C 56 % 71 % 63 % 1008,6 hPa 0,0 l/m 6,7 km/h (2 Bft) 0,13 h 0,00 h 13,0 km/h (3 Bft)
05.08.2012 17:00 26,3 C 23,6 C 2,3 UV-I 3,2 C 55 % 71 % 90 % 1007,6 hPa 0,0 l/m 6,0 km/h (2 Bft) 0,97 h 0,00 h 9,6 km/h (2 Bft)
05.08.2012 18:00 26,4 C 23,3 C 1,0 UV-I 1,4 C 55 % 71 % 40 % 1007,8 hPa 0,0 l/m 7,0 km/h (2 Bft) 0,00 h 0,00 h 12,4 km/h (3 Bft)
05.08.2012 19:00 25,9 C 22,9 C 0,3 UV-I 0,1 C 54 % 68 % 3 % 1007,3 hPa 0,0 l/m 5,7 km/h (1 Bft) 0,00 h 0,00 h 10,3 km/h (2 Bft)
05.08.2012 20:00 25,4 C 21,5 C 0,0 UV-I 0,0 C 57 % 75 % 0 % 1007,0 hPa 0,0 l/m 1,1 km/h (1 Bft) 0,00 h 0,37 h 2,8 km/h (1 Bft)
05.08.2012 21:00 25,1 C 20,2 C 0,0 UV-I 0,0 C 59 % 82 % 0 % 1007,4 hPa 0,0 l/m 0,2 km/h (0 Bft) 0,00 h 0,20 h 0,9 km/h (0 Bft)
05.08.2012 22:00 24,9 C 19,3 C 0,0 UV-I 0,0 C 61 % 86 % 0 % 1007,8 hPa 0,1 l/m 0,5 km/h (0 Bft) 0,00 h 0,80 h 2,0 km/h (1 Bft)
05.08.2012 23:00 24,6 C 18,6 C 0,0 UV-I 0,0 C 63 % 90 % 0 % 1007,9 hPa 0,5 l/m 0,4 km/h (0 Bft) 0,00 h 0,90 h 1,2 km/h (1 Bft)
Min-Datum _ 31.07.12 30.07.12 30.07.12 30.07.12 04.08.12 01.08.12 30.07.12 05.08.12 - 30.07.12 - - 30.07.12
_ Min-Zeit 06:02 06:32 00:00 00:00 18:02 17:02 00:00 20:12 - 02:42 - - 00:24
Minimum _ 21,0 C 12,2 C 0,0 UV-I 0,0 C 41 % 45 % 0 % 1006,8 hPa - 0,0 km/h (0 Bft) - - 0,0 km/h (0 Bft)
Max-Datum _ 01.08.12 01.08.12 01.08.12 03.08.12 02.08.12 05.08.12 30.07.12 31.07.12 30.07.12 01.08.12 30.07.12 30.07.12 02.08.12
_ Max-Zeit 17:00 16:56 10:44 09:10 07:40 07:50 08:42 11:52 03:08 16:14 08:38 01:00 12:10
Maximum _ 28,6 C 30,5 C 5,7 UV-I 8,9 C 64 % 96 % 100 % 1018,1 hPa 2,1 l/m 12,8 km/h
SO (3 Bft)
0,03 h 0,03 h 41,0 km/h
SO (6 Bft)
Durchschnitt _ 23,9 C 19,4 C 0,9 UV-I 1,7 C 54 % 75 % 35 % 1013,4 hPa #4,9 l/m 2,8 km/h (1 Bft) #48:22 h #4:24 h 5,8 km/h (2 Bft)
© 2012 W. Hausmann